Federated Investors Inc-Cl B (FII) Latest Bloomsberg Price


Mffais Ranking #219 Overall / #1 Industry
Industry: Investment Management

Number of Companies: 237 (Ranking #683 Overall/#9 Industry)
Inflow: $ 104,287 (K) (Ranking #936 Overall/#7 Industry)
Outflow: $ -60,661 (K)
Mffais Flow: $ 43,626 (K) (Ranking #219 Overall/#1 Industry)


Receive a FREE weekly executive review of stocks moving into the top 10, taking the top industy spot or moving up within their industry. Sent directly to your Inbox every Saturday. Sign up today and get last week's review immediately sent to you.

We value and respect your privacy. Please read our Terms and Conditions which states our firm commitment to your privacy. Your email address will not be shared with a third party, nor will it be sold or used for purposes other than subscription for the weekly review.

Owner CPOR Shares Action Qty Chg Invested (K) Total Current Value (K)
Smith Asset Management Group Lp 2016-09-30 349,120 New Holding 349,120 $ 10,944 $ 10,944
New Amsterdam Partners Llc Ny 2016-09-30 290,481 New Holding 290,481 $ 9,106 $ 9,106
Panagora Asset Management Inc 2016-09-30 257,700 Added More 239,686 $ 7,514 $ 8,078
Kayne Anderson Rudnick Investment Management Llc 2016-09-30 291,941 Added More 226,034 $ 7,086 $ 9,152
Horizon Kinetics Llc 2016-09-30 418,083 Added More 149,671 $ 4,692 $ 13,106
Menta Capital Llc 2016-09-30 140,924 New Holding 140,924 $ 4,417 $ 4,417
Thrivent Financial For Lutherans 2016-09-30 139,940 Added More 126,540 $ 3,967 $ 4,387
Capital One National Association 2016-09-30 131,369 Added More 122,093 $ 3,827 $ 4,118
Skandinaviska Enskilda Banken Ab Publ 2016-09-30 111,800 New Holding 111,800 $ 3,504 $ 3,504
Clarkston Capital Partners Llc 2016-09-30 2,099,629 Added More 104,380 $ 3,272 $ 65,823
Sprott Inc 2016-09-30 100,000 New Holding 100,000 $ 3,135 $ 3,135
Nationwide Fund Advisors 2016-09-30 256,537 Added More 88,587 $ 2,777 $ 8,042
Pinebridge Investments L P 2016-09-30 86,178 New Holding 86,178 $ 2,701 $ 2,701
Dimensional Fund Advisors Lp 2016-09-30 1,822,950 Added More 77,535 $ 2,430 $ 57,149
Ahl Partners Llp 2016-09-30 72,152 New Holding 72,152 $ 2,261 $ 2,261
Raymond James Associates 2016-09-30 372,920 Added More 69,383 $ 2,175 $ 11,691
Simmons Bank 2016-09-30 65,486 New Holding 65,486 $ 2,052 $ 2,052
Capstone Investment Advisors Llc 2016-09-30 60,800 New Holding 60,800 $ 1,906 $ 1,906
Cubist Systematic Strategies Llc 2016-09-30 101,502 Added More 56,540 $ 1,772 $ 3,182
Her Majesty The Queen In Right Of The Province Of Alberta As 2016-09-30 82,500 Added More 51,100 $ 1,601 $ 2,586
State Of Tennessee Treasury Department 2016-09-30 180,000 Added More 40,000 $ 1,254 $ 5,643
Crawford Investment Counsel Inc 2016-09-30 98,889 Added More 39,052 $ 1,224 $ 3,100
Omers Administration Corp 2016-09-30 64,300 Added More 38,100 $ 1,194 $ 2,015
United Services Automobile Association 2016-09-30 35,390 New Holding 35,390 $ 1,109 $ 1,109
Schonfeld Strategic Advisors Llc 2016-09-30 48,840 Added More 34,878 $ 1,093 $ 1,531
Teachers Advisors Inc 2016-09-30 117,815 Added More 34,326 $ 1,076 $ 3,693
Babson Capital Management Llc 2016-09-30 33,280 New Holding 33,280 $ 1,043 $ 1,043
Fdx Advisors Inc 2016-09-30 25,029 New Holding 25,029 $ 784 $ 784
Cipher Capital Lp 2016-09-30 118,088 Added More 22,980 $ 720 $ 3,702
Ellington Management Group Llc 2016-09-30 20,600 New Holding 20,600 $ 645 $ 645
Westover Capital Advisors Llc 2016-09-30 20,282 New Holding 20,282 $ 635 $ 635
Cornercap Investment Counsel Inc 2016-09-30 20,010 New Holding 20,010 $ 627 $ 627
Old Mutual Global Investors Uk Ltd 2016-09-30 16,936 New Holding 16,936 $ 530 $ 530
Sei Investments Co 2016-09-30 17,211 Added More 15,227 $ 477 $ 539
Stevens Capital Management Lp 2016-09-30 26,166 Added More 15,163 $ 475 $ 820
Verition Fund Management Llc 2016-09-30 15,044 New Holding 15,044 $ 471 $ 471
Amp Capital Investors Ltd 2016-09-30 14,900 New Holding 14,900 $ 467 $ 467
Burgundy Asset Management Ltd 2016-09-30 1,630,624 Added More 13,847 $ 434 $ 51,120
Bowling Portfolio Management Llc 2016-09-30 187,660 Added More 13,410 $ 420 $ 5,883
Guggenheim Capital Llc 2016-09-30 46,242 Added More 13,041 $ 408 $ 1,449
First Citizens Bank Trust Co 2016-09-30 12,943 New Holding 12,943 $ 405 $ 405
Papp L Roy Associates 2016-09-30 165,411 Added More 11,865 $ 371 $ 5,185
Prospector Partners Llc 2016-09-30 351,100 Added More 11,100 $ 347 $ 11,006
Old National Bancorp In 2016-09-30 11,075 New Holding 11,075 $ 347 $ 347
Wesbanco Bank Inc 2016-09-30 113,685 Added More 10,797 $ 338 $ 3,564
Comerica Bank 2016-09-30 676,357 Added More 10,732 $ 336 $ 21,203
Princeton Alpha Management Lp 2016-09-30 31,221 Added More 10,289 $ 322 $ 978
First National Trust Co 2016-09-30 29,085 Added More 10,044 $ 314 $ 911
Amg National Trust Bank 2016-09-30 57,079 Added More 9,571 $ 300 $ 1,789
Rodgers Brothers Inc 2016-09-30 58,800 Added More 9,500 $ 297 $ 1,843
Rhumbline Advisers 2016-09-30 192,319 Added More 9,306 $ 291 $ 6,029
Clinton Group Inc 2016-09-30 19,409 Added More 8,793 $ 275 $ 608
Legal General Group Plc 2016-09-30 66,627 Added More 8,494 $ 266 $ 2,088
Hutchin Hill Capital Lp 2016-09-30 8,400 New Holding 8,400 $ 263 $ 263
Staley Capital Advisers Inc 2016-09-30 16,897 Added More 8,050 $ 252 $ 529
Walleye Trading Llc 2016-09-30 13,242 Added More 7,795 $ 244 $ 415
Gsa Capital Partners Llp 2016-09-30 19,166 Added More 7,657 $ 240 $ 600
Tower Research Capital Llc Trc 2016-09-30 10,509 Added More 7,447 $ 233 $ 329
Quantbot Technologies Lp 2016-09-30 59,438 Added More 7,147 $ 224 $ 1,863
Boothbay Fund Management Llc 2016-09-30 7,009 New Holding 7,009 $ 219 $ 219
Gotham Asset Management Llc 2016-09-30 6,830 New Holding 6,830 $ 214 $ 214
Parametric Portfolio Associates Llc 2016-09-30 209,882 Added More 5,739 $ 179 $ 6,579
Quantitative Investment Management Llc 2016-09-30 28,500 Added More 5,100 $ 159 $ 893
Eagleclaw Capital Managment Llc 2016-09-30 69,025 Added More 4,400 $ 137 $ 2,163
Archon Partners Llc 2016-09-30 312,300 Added More 4,300 $ 134 $ 9,790
Bokf Na 2016-09-30 27,671 Added More 3,798 $ 119 $ 867
Murphy Pohlad Asset Management Llc 2016-09-30 84,280 Added More 3,685 $ 115 $ 2,642
Invictus Rg 2016-09-30 3,314 New Holding 3,314 $ 103 $ 103
Sterling Capital Management Llc 2016-09-30 61,390 Added More 3,210 $ 100 $ 1,924
Mutual Of America Capital Management Llc 2016-09-30 70,947 Added More 1,916 $ 60 $ 2,224
Liberty Mutual Group Asset Management Inc 2016-09-30 42,915 Added More 1,908 $ 59 $ 1,345
Northwest Investment Counselors Llc 2016-09-30 50,278 Added More 1,901 $ 59 $ 1,576
Ngam Advisors L P 2016-09-30 16,091 Added More 1,841 $ 57 $ 504
Hightower Advisors Llc 2016-09-30 209,984 Added More 1,839 $ 57 $ 6,582
California State Teachers Retirement System 2016-09-30 199,423 Added More 1,800 $ 56 $ 6,251
Fuller Thaler Asset Management Inc 2016-09-30 2,475 Added More 1,800 $ 56 $ 77
Acrospire Investment Management Llc 2016-09-30 2,900 Added More 1,600 $ 50 $ 90
First Midwest Bank Trust Division 2016-09-30 11,820 Added More 1,400 $ 43 $ 370
Sawgrass Asset Management Llc 2016-09-30 8,650 Added More 1,025 $ 32 $ 271
Trust Co Of Vermont 2016-09-30 950 New Holding 950 $ 29 $ 29
Blackrock Inc 2016-09-30 67,282 Added More 909 $ 28 $ 2,109
Biondo Investment Advisors Llc 2016-09-30 90,507 Added More 848 $ 26 $ 2,837
Trimtabs Asset Management Llc 2016-09-30 828 New Holding 828 $ 25 $ 25
Td Asset Management Inc 2016-09-30 21,423 Added More 723 $ 22 $ 671
Pacer Advisors Inc 2016-09-30 8,535 Added More 720 $ 22 $ 267
Oregon Public Employees Retirement Fund 2016-09-30 32,527 Added More 652 $ 20 $ 1,019
Bessemer Group Inc 2016-09-30 560 New Holding 560 $ 17 $ 17
Liberty Capital Management Inc 2016-09-30 520 New Holding 520 $ 16 $ 16
Ladenburg Thalmann Financial Services Inc 2016-09-30 5,978 Added More 514 $ 16 $ 187
Genesee Valley Trust Co 2016-09-30 12,395 Added More 447 $ 14 $ 388
Next Financial Group Inc 2016-09-30 730 Added More 430 $ 13 $ 22
Tudor Investment Corp Et Al 2016-09-30 15,000 Added More 400 $ 12 $ 470
Ls Investment Advisors Llc 2016-09-30 6,049 Added More 387 $ 12 $ 189
Zurcher Kantonalbank Zurich Cantonalbank 2016-09-30 2,567 Added More 378 $ 11 $ 80
Penserra Capital Management Llc 2016-09-30 1,362 Added More 358 $ 11 $ 42
Integrated Investment Consultants Llc 2016-09-30 3,350 Added More 350 $ 10 $ 105
Mason Street Advisors Llc 2016-09-30 43,416 Added More 265 $ 8 $ 1,361
Raymond James Financial Services Advisors Inc 2016-09-30 17,243 Added More 165 $ 5 $ 540
West Oak Capital Llc 2016-09-30 1,052 Added More 156 $ 4 $ 32
Plante Moran Financial Advisors Llc 2016-09-30 129 New Holding 129 $ 4 $ 4
Creative Planning 2016-09-30 1,328 Added More 116 $ 3 $ 41
Ifp Advisors Inc 2016-09-30 490 Added More 115 $ 3 $ 15
Motco 2016-09-30 114 New Holding 114 $ 3 $ 3
Advisor Group Inc 2016-09-30 1,806 Added More 61 $ 1 $ 56
Wealthtrust-Arizona Llc 2016-09-30 170 Added More 18 $ 0 $ 5
M T Bank Corp 2016-09-30 51,025 Added More 10 $ 0 $ 1,599
Pacific Global Investment Management Co 2016-09-30 8,258 Added More 7 $ 0 $ 258
Northwestern Mutual Wealth Management Co 2016-09-30 554 Added More 5 $ 0 $ 17
Weaver C Barksdale Associates Inc 2016-09-30 156 Added More 5 $ 0 $ 4
Davenport Co Llc 2016-09-30 152,467 Added More 1 $ 0 $ 4,779
Proficio Capital Partners Llc 2016-09-30 95 No Change 0 $ 0 $ 2
Central Trust Co 2016-09-30 1,247 No Change 0 $ 0 $ 39
New York State Teachers Retirement System 2016-09-30 148,849 No Change 0 $ 0 $ 4,666
Teachers Retirement System Of The State Of Kentucky 2016-09-30 25,400 No Change 0 $ 0 $ 796
Schwartz Investment Counsel Inc 2016-09-30 52,700 No Change 0 $ 0 $ 1,652
Emerald Advisers Inc Pa 2016-09-30 210,250 No Change 0 $ 0 $ 6,591
Enterprise Financial Services Corp 2016-09-30 94 No Change 0 $ 0 $ 2
Gabelli Funds Llc 2016-09-30 130,000 No Change 0 $ 0 $ 4,075
Bremer Trust National Association 2016-09-30 7,151 No Change 0 $ 0 $ 224
Grt Capital Partners L L C 2016-09-30 12,092 No Change 0 $ 0 $ 379
Continental Advisors Llc 2016-09-30 59,385 No Change 0 $ 0 $ 1,861
Ledyard National Bank 2016-09-30 1,525 No Change 0 $ 0 $ 47
Ridgeworth Capital Management Llc 2016-09-30 3,104 No Change 0 $ 0 $ 97
Assetmark Inc 2016-09-30 708 No Change 0 $ 0 $ 22
Estabrook Capital Management 2016-09-30 750 No Change 0 $ 0 $ 23
Hillsdale Investment Management Inc 2016-09-30 12,500 No Change 0 $ 0 $ 391
State Of Alaska Department Of Revenue 2016-09-30 7,420 No Change 0 $ 0 $ 232
Peoples United Financial Inc 2016-09-30 159 No Change 0 $ 0 $ 4
Manchester Capital Management Llc 2016-09-30 56 No Change 0 $ 0 $ 1
Msi Financial Services Inc 2016-09-30 1,371 No Change 0 $ 0 $ 42
Parkside Financial Bank Trust 2016-09-30 20 No Change 0 $ 0 $ 0
Americafirst Capital Management Llc 2016-09-30 3,498 No Change 0 $ 0 $ 109
Qs Investors Llc 2016-09-30 11 No Change 0 $ 0 $ 0
Nuveen Asset Management Llc 2016-09-30 54,221 No Change 0 $ 0 $ 1,699
Utah Retirement Systems 2016-09-30 16,946 No Change 0 $ 0 $ 531
Oxbow Advisors Llc 2016-09-30 7,190 No Change 0 $ 0 $ 225
Riverpoint Capital Management Llc 2016-09-30 13,200 No Change 0 $ 0 $ 413
Advisory Services Network Llc 2016-09-30 3,550 No Change 0 $ 0 $ 111
Oakworth Capital Inc 2016-09-30 112 No Change 0 $ 0 $ 3
Glenview State Bank Trust Dept 2016-09-30 10,350 No Change 0 $ 0 $ 324
Tarbox Group Inc 2016-09-30 23 No Change 0 $ 0 $ 0
Archford Capital Strategies Llc 2016-09-30 17 No Change 0 $ 0 $ 0
Trust Co 2016-09-30 200 No Change 0 $ 0 $ 6
Integrated Wealth Management 2016-09-30 26 No Change 0 $ 0 $ 0
Bronfman E L Rothschild L P 2016-09-30 48 No Change 0 $ 0 $ 1
Cwa Asset Management Group Llc 2016-09-30 96,994 No Change 0 $ 0 $ 3,040
Great Lakes Advisors Llc 2016-09-30 7,756 Sold Some -20 $ -0 $ 243
Lenox Wealth Management Inc 2016-09-30 1,151 Sold Some -36 $ -1 $ 36
Cantab Capital Partners Llp 2016-09-30 17,086 Sold Some -39 $ -1 $ 535
Quadrant Capital Group Llc 2016-09-30 58 Sold Some -41 $ -1 $ 1
Gemmer Asset Management Llc 2016-09-30 103 Sold Some -71 $ -2 $ 3
Finemark National Bank Trust 2016-09-30 0 Sold All -80 $ -2 $ 0
Hunter Associates Investment Management Llc 2016-09-30 8,121 Sold Some -100 $ -3 $ 254
Cutler Group Lp 2016-09-30 0 Sold All -100 $ -3 $ 0
Advantus Capital Management Inc 2016-09-30 11,359 Sold Some -100 $ -3 $ 356
Northwestern Mutual Investment Management Company Llc 2016-09-30 16,158 Sold Some -177 $ -5 $ 506
Keeley Asset Management Corp 2016-09-30 31,080 Sold Some -180 $ -5 $ 974
Advisors Asset Management Inc 2016-09-30 2,300 Sold Some -200 $ -6 $ 72
Point72 Asia Hong Kong Ltd 2016-09-30 0 Sold All -200 $ -6 $ 0
Rehmann Capital Advisory Group 2016-09-30 8,879 Sold Some -283 $ -8 $ 278
Capstone Asset Management Co 2016-09-30 7,275 Sold Some -340 $ -10 $ 228
Botty Investors Llc 2016-09-30 8,650 Sold Some -365 $ -11 $ 271
Ibm Retirement Fund 2016-09-30 9,044 Sold Some -392 $ -12 $ 283
Us Bancorp De 2016-09-30 4,181 Sold Some -392 $ -12 $ 131
Arizona State Retirement System 2016-09-30 39,071 Sold Some -400 $ -12 $ 1,224
Goodhaven Capital Management Llc 2016-09-30 435,305 Sold Some -500 $ -15 $ 13,646
Checchi Capital Advisers Llc 2016-09-30 0 Sold All -572 $ -17 $ 0
Ftb Advisors Inc 2016-09-30 491 Sold Some -574 $ -17 $ 15
Simplex Trading Llc 2016-09-30 0 Sold All -617 $ -19 $ 0
Atlantic Trust Group Llc 2016-09-30 57,790 Sold Some -625 $ -19 $ 1,811
Lowe Brockenbrough Co Inc 2016-09-30 9,115 Sold Some -635 $ -19 $ 285
Central Bank Trust Co 2016-09-30 105,567 Sold Some -792 $ -24 $ 3,309
Financial Architects Inc 2016-09-30 5,557 Sold Some -850 $ -26 $ 174
Commonwealth Equity Services Inc 2016-09-30 453,664 Sold Some -858 $ -26 $ 14,222
Texas Permanent School Fund 2016-09-30 71,482 Sold Some -868 $ -27 $ 2,240
Wescap Management Group Inc 2016-09-30 44,773 Sold Some -920 $ -28 $ 1,403
Dupont Capital Management Corp 2016-09-30 25,621 Sold Some -1,090 $ -34 $ 803
Retirement Systems Of Alabama 2016-09-30 120,917 Sold Some -1,143 $ -35 $ 3,790
Alps Advisors Inc 2016-09-30 13,121 Sold Some -1,171 $ -36 $ 411
Cadence Capital Management Llc 2016-09-30 10,570 Sold Some -1,224 $ -38 $ 331
Proshare Advisors Llc 2016-09-30 19,899 Sold Some -1,320 $ -41 $ 623
Tompkins Financial Corp 2016-09-30 0 Sold All -1,380 $ -43 $ 0
Wright Investors Service Inc 2016-09-30 28,820 Sold Some -1,420 $ -44 $ 903
Nisa Investment Advisors Llc 2016-09-30 33,300 Sold Some -1,500 $ -47 $ 1,043
American International Group Inc 2016-09-30 180,635 Sold Some -1,820 $ -57 $ 5,662
Emerald Acquisition Ltd 2016-09-30 16,317 Sold Some -1,924 $ -60 $ 511
Bbva Compass Bancshares Inc 2016-09-30 8,887 Sold Some -1,936 $ -60 $ 278
Hsbc Holdings Plc 2016-09-30 8,142 Sold Some -2,062 $ -64 $ 255
Fifth Third Bancorp 2016-09-30 9,196 Sold Some -2,088 $ -65 $ 288
Park National Corp Oh 2016-09-30 7,926 Sold Some -2,126 $ -66 $ 248
Seven Eight Capital Llc 2016-09-30 0 Sold All -2,200 $ -68 $ 0
Nomura Asset Management Co Ltd 2016-09-30 0 Sold All -2,200 $ -68 $ 0
Profund Advisors Llc 2016-09-30 12,713 Sold Some -2,484 $ -77 $ 398
Washington Trust Bank 2016-09-30 0 Sold All -2,500 $ -78 $ 0
Capital City Trust Co Fl 2016-09-30 80,222 Sold Some -2,750 $ -86 $ 2,514
Blackrock Investment Management Llc 2016-09-30 314,133 Sold Some -2,894 $ -90 $ 9,848
Buckhead Capital Management Llc 2016-09-30 190,095 Sold Some -3,020 $ -94 $ 5,959
Teacher Retirement System Of Texas 2016-09-30 9,988 Sold Some -3,129 $ -98 $ 313
Baird Financial Group Inc 2016-09-30 55,373 Sold Some -3,825 $ -119 $ 1,735
Mu Investments Co Ltd 2016-09-30 0 Sold All -4,050 $ -126 $ 0
Commerce Bank 2016-09-30 8,730 Sold Some -4,379 $ -137 $ 273
Envestnet Asset Management Inc 2016-09-30 17,778 Sold Some -5,001 $ -156 $ 557
Swiss National Bank 2016-09-30 151,517 Sold Some -5,700 $ -178 $ 4,750
Appleton Partners Inc Ma 2016-09-30 116,670 Sold Some -6,570 $ -205 $ 3,657
Bb T Securities Llc 2016-09-30 29,188 Sold Some -7,243 $ -227 $ 915
Boys Arnold Co Inc 2016-09-30 0 Sold All -7,325 $ -229 $ 0
Fulton Bank N A 2016-09-30 0 Sold All -7,957 $ -249 $ 0
Norinchukin Bank The 2016-09-30 13,900 Sold Some -8,100 $ -253 $ 435
Aperio Group Llc 2016-09-30 27,368 Sold Some -9,143 $ -286 $ 857
Tlp Group Llc 2016-09-30 0 Sold All -9,583 $ -300 $ 0
Shelton Capital Management 2016-09-30 0 Sold All -9,840 $ -308 $ 0
Ims Capital Management 2016-09-30 48,607 Sold Some -9,996 $ -313 $ 1,523
Rafferty Asset Management Llc 2016-09-30 0 Sold All -10,074 $ -315 $ 0
Capital Fund Management S A 2016-09-30 69,380 Sold Some -10,539 $ -330 $ 2,175
Pacad Investment Ltd 2016-09-30 12,900 Sold Some -10,700 $ -335 $ 404
Hourglass Capital Llc 2016-09-30 0 Sold All -12,900 $ -404 $ 0
Dynamic Technology Lab Private Ltd 2016-09-30 11,102 Sold Some -12,978 $ -406 $ 348
Kcg Holdings Inc 2016-09-30 49,320 Sold Some -14,443 $ -452 $ 1,546
Bluemountain Capital Management Llc 2016-09-30 20,155 Sold Some -15,206 $ -476 $ 631
Engineers Gate Manager Lp 2016-09-30 0 Sold All -15,339 $ -480 $ 0
Highbridge Capital Management Llc 2016-09-30 10,100 Sold Some -16,382 $ -513 $ 316
New York State Common Retirement Fund 2016-09-30 429,400 Sold Some -17,200 $ -539 $ 13,461
Peak6 Investments L P 2016-09-30 8,400 Sold Some -17,401 $ -545 $ 263
S T Bank Pa 2016-09-30 296,272 Sold Some -19,209 $ -602 $ 9,288
Sg Americas Securities Llc 2016-09-30 19,363 Sold Some -21,523 $ -674 $ 607
Mackenzie Financial Corp 2016-09-30 0 Sold All -23,753 $ -744 $ 0
First Quadrant L P Ca 2016-09-30 370 Sold Some -24,800 $ -777 $ 11
Hamlin Capital Management Llc 2016-09-30 1,331,249 Sold Some -26,243 $ -822 $ 41,734
Quadrature Capital Ltd 2016-09-30 19,209 Sold Some -27,966 $ -876 $ 602
A R T Advisors Llc 2016-09-30 0 Sold All -29,891 $ -937 $ 0
Trexquant Investment Lp 2016-09-30 0 Sold All -36,400 $ -1,141 $ 0
State Treasurer State Of Michigan 2016-09-30 37,800 Sold Some -37,400 $ -1,172 $ 1,185
Pnc Financial Services Group Inc 2016-09-30 287,695 Sold Some -43,392 $ -1,360 $ 9,019
Northern Trust Corp 2016-09-30 1,075,907 Sold Some -120,344 $ -3,772 $ 33,729
Schneider Downs Wealth Management Advisors Lp 2016-09-30 3,225,137 Sold Some -255,601 $ -8,013 $ 101,108
Cs Mckee Lp 2016-09-30 316,000 Sold Some -289,390 $ -9,072 $ 9,906
Royce Associates Lp 2016-09-30 4,503,736 Sold Some -672,468 $ -21,081 $ 141,192